sensor_id;sensor_type;location;lat;lon;timestamp;temperature;humidity
25811;DHT22;13645;52.460;13.910;2023-07-31T00:01:04;16.30;99.90
25811;DHT22;13645;52.460;13.910;2023-07-31T00:03:31;16.30;99.90
25811;DHT22;13645;52.460;13.910;2023-07-31T00:05:58;16.30;99.90
25811;DHT22;13645;52.460;13.910;2023-07-31T00:08:25;16.30;99.90
25811;DHT22;13645;52.460;13.910;2023-07-31T00:10:52;16.30;99.90
25811;DHT22;13645;52.460;13.910;2023-07-31T00:13:19;16.30;99.90
25811;DHT22;13645;52.460;13.910;2023-07-31T00:15:46;16.30;99.90
25811;DHT22;13645;52.460;13.910;2023-07-31T00:18:13;16.30;99.90
25811;DHT22;13645;52.460;13.910;2023-07-31T00:20:40;16.30;99.90
25811;DHT22;13645;52.460;13.910;2023-07-31T00:23:07;16.30;99.90
25811;DHT22;13645;52.460;13.910;2023-07-31T00:25:34;16.30;99.90
25811;DHT22;13645;52.460;13.910;2023-07-31T00:28:10;16.30;99.90
25811;DHT22;13645;52.460;13.910;2023-07-31T00:30:39;16.30;99.90
25811;DHT22;13645;52.460;13.910;2023-07-31T00:33:06;16.30;99.90
25811;DHT22;13645;52.460;13.910;2023-07-31T00:35:36;16.30;99.90
25811;DHT22;13645;52.460;13.910;2023-07-31T00:38:03;16.20;99.90
25811;DHT22;13645;52.460;13.910;2023-07-31T00:40:34;16.30;99.90
25811;DHT22;13645;52.460;13.910;2023-07-31T00:43:01;16.30;99.90
25811;DHT22;13645;52.460;13.910;2023-07-31T00:45:30;16.20;99.90
25811;DHT22;13645;52.460;13.910;2023-07-31T00:47:57;16.30;99.90
25811;DHT22;13645;52.460;13.910;2023-07-31T00:50:24;16.20;99.90
25811;DHT22;13645;52.460;13.910;2023-07-31T00:52:52;16.20;99.90
25811;DHT22;13645;52.460;13.910;2023-07-31T00:55:19;16.20;99.90
25811;DHT22;13645;52.460;13.910;2023-07-31T00:57:52;16.20;99.90
25811;DHT22;13645;52.460;13.910;2023-07-31T01:00:22;16.20;99.90
25811;DHT22;13645;52.460;13.910;2023-07-31T01:02:50;16.20;99.90
25811;DHT22;13645;52.460;13.910;2023-07-31T01:05:27;16.20;99.90
25811;DHT22;13645;52.460;13.910;2023-07-31T01:10:52;16.20;99.90
25811;DHT22;13645;52.460;13.910;2023-07-31T01:13:21;16.20;99.90
25811;DHT22;13645;52.460;13.910;2023-07-31T01:15:48;16.10;99.90
25811;DHT22;13645;52.460;13.910;2023-07-31T01:18:15;16.10;99.90
25811;DHT22;13645;52.460;13.910;2023-07-31T01:20:47;16.10;99.90
25811;DHT22;13645;52.460;13.910;2023-07-31T01:26:21;16.10;99.90
25811;DHT22;13645;52.460;13.910;2023-07-31T01:31:41;16.20;99.90
25811;DHT22;13645;52.460;13.910;2023-07-31T01:34:10;16.20;99.90
25811;DHT22;13645;52.460;13.910;2023-07-31T01:36:37;16.20;99.90
25811;DHT22;13645;52.460;13.910;2023-07-31T01:39:05;16.10;99.90
25811;DHT22;13645;52.460;13.910;2023-07-31T01:41:31;16.10;99.90
25811;DHT22;13645;52.460;13.910;2023-07-31T01:43:58;16.10;99.90
25811;DHT22;13645;52.460;13.910;2023-07-31T01:46:25;16.10;99.90
25811;DHT22;13645;52.460;13.910;2023-07-31T01:48:52;16.00;99.90
25811;DHT22;13645;52.460;13.910;2023-07-31T01:51:21;16.00;99.90
25811;DHT22;13645;52.460;13.910;2023-07-31T01:53:50;16.00;99.90
25811;DHT22;13645;52.460;13.910;2023-07-31T01:56:17;16.00;99.90
25811;DHT22;13645;52.460;13.910;2023-07-31T01:58:44;16.00;99.90
25811;DHT22;13645;52.460;13.910;2023-07-31T02:01:11;15.90;99.90
25811;DHT22;13645;52.460;13.910;2023-07-31T02:03:38;15.90;99.90
25811;DHT22;13645;52.460;13.910;2023-07-31T02:06:05;15.90;99.90
25811;DHT22;13645;52.460;13.910;2023-07-31T02:08:31;15.90;99.90
25811;DHT22;13645;52.460;13.910;2023-07-31T02:11:02;15.90;99.90
25811;DHT22;13645;52.460;13.910;2023-07-31T02:13:28;15.80;99.90
25811;DHT22;13645;52.460;13.910;2023-07-31T02:15:55;15.80;99.90
25811;DHT22;13645;52.460;13.910;2023-07-31T02:18:25;15.80;99.90
25811;DHT22;13645;52.460;13.910;2023-07-31T02:20:52;15.80;99.90
25811;DHT22;13645;52.460;13.910;2023-07-31T02:23:19;15.80;99.90
25811;DHT22;13645;52.460;13.910;2023-07-31T02:25:46;15.70;99.90
25811;DHT22;13645;52.460;13.910;2023-07-31T02:28:13;15.80;99.90
25811;DHT22;13645;52.460;13.910;2023-07-31T02:30:44;15.80;99.90
25811;DHT22;13645;52.460;13.910;2023-07-31T02:33:12;15.80;99.90
25811;DHT22;13645;52.460;13.910;2023-07-31T02:35:40;15.70;99.90
25811;DHT22;13645;52.460;13.910;2023-07-31T02:38:06;15.80;99.90
25811;DHT22;13645;52.460;13.910;2023-07-31T02:40:33;15.80;99.90
25811;DHT22;13645;52.460;13.910;2023-07-31T02:43:00;15.80;99.90
25811;DHT22;13645;52.460;13.910;2023-07-31T02:45:27;15.70;99.90
25811;DHT22;13645;52.460;13.910;2023-07-31T02:47:55;15.80;99.90
25811;DHT22;13645;52.460;13.910;2023-07-31T02:50:22;15.80;99.90
25811;DHT22;13645;52.460;13.910;2023-07-31T02:52:49;15.80;99.90
25811;DHT22;13645;52.460;13.910;2023-07-31T02:55:16;15.80;99.90
25811;DHT22;13645;52.460;13.910;2023-07-31T02:57:43;15.80;99.90
25811;DHT22;13645;52.460;13.910;2023-07-31T03:00:10;15.70;99.90
25811;DHT22;13645;52.460;13.910;2023-07-31T03:02:37;15.70;99.90
25811;DHT22;13645;52.460;13.910;2023-07-31T03:05:04;15.70;99.90
25811;DHT22;13645;52.460;13.910;2023-07-31T03:07:31;15.70;99.90
25811;DHT22;13645;52.460;13.910;2023-07-31T03:09:57;15.70;99.90
25811;DHT22;13645;52.460;13.910;2023-07-31T03:12:24;15.70;99.90
25811;DHT22;13645;52.460;13.910;2023-07-31T03:14:51;15.70;99.90
25811;DHT22;13645;52.460;13.910;2023-07-31T03:17:18;15.70;99.90
25811;DHT22;13645;52.460;13.910;2023-07-31T03:19:45;15.70;99.90
25811;DHT22;13645;52.460;13.910;2023-07-31T03:22:11;15.70;99.90
25811;DHT22;13645;52.460;13.910;2023-07-31T03:24:38;15.70;99.90
25811;DHT22;13645;52.460;13.910;2023-07-31T03:27:05;15.60;99.90
25811;DHT22;13645;52.460;13.910;2023-07-31T03:29:32;15.60;99.90
25811;DHT22;13645;52.460;13.910;2023-07-31T03:31:59;15.60;99.90
25811;DHT22;13645;52.460;13.910;2023-07-31T03:34:26;15.60;99.90
25811;DHT22;13645;52.460;13.910;2023-07-31T03:36:53;15.60;99.90
25811;DHT22;13645;52.460;13.910;2023-07-31T03:39:20;15.60;99.90
25811;DHT22;13645;52.460;13.910;2023-07-31T03:41:47;15.60;99.90
25811;DHT22;13645;52.460;13.910;2023-07-31T03:44:14;15.60;99.90
25811;DHT22;13645;52.460;13.910;2023-07-31T03:46:41;15.60;99.90
25811;DHT22;13645;52.460;13.910;2023-07-31T03:49:08;15.60;99.90
25811;DHT22;13645;52.460;13.910;2023-07-31T03:51:35;15.60;99.90
25811;DHT22;13645;52.460;13.910;2023-07-31T03:54:02;15.60;99.90
25811;DHT22;13645;52.460;13.910;2023-07-31T03:56:33;15.60;99.90
25811;DHT22;13645;52.460;13.910;2023-07-31T03:59:02;15.60;99.90
25811;DHT22;13645;52.460;13.910;2023-07-31T04:01:30;15.60;99.90
25811;DHT22;13645;52.460;13.910;2023-07-31T04:03:58;15.60;99.90
25811;DHT22;13645;52.460;13.910;2023-07-31T04:06:32;15.70;99.90
25811;DHT22;13645;52.460;13.910;2023-07-31T04:08:59;15.60;99.90
25811;DHT22;13645;52.460;13.910;2023-07-31T04:11:26;15.60;99.90
25811;DHT22;13645;52.460;13.910;2023-07-31T04:13:53;15.70;99.90
25811;DHT22;13645;52.460;13.910;2023-07-31T04:16:25;15.70;99.90
25811;DHT22;13645;52.460;13.910;2023-07-31T04:18:52;15.70;99.90
25811;DHT22;13645;52.460;13.910;2023-07-31T04:21:19;15.80;99.90
25811;DHT22;13645;52.460;13.910;2023-07-31T04:23:46;15.70;99.90
25811;DHT22;13645;52.460;13.910;2023-07-31T04:26:27;15.70;99.90
25811;DHT22;13645;52.460;13.910;2023-07-31T04:28:54;15.80;99.90
25811;DHT22;13645;52.460;13.910;2023-07-31T04:31:21;15.80;99.90
25811;DHT22;13645;52.460;13.910;2023-07-31T04:33:48;15.80;99.90
25811;DHT22;13645;52.460;13.910;2023-07-31T04:36:18;15.80;99.90
25811;DHT22;13645;52.460;13.910;2023-07-31T04:38:45;15.80;99.90
25811;DHT22;13645;52.460;13.910;2023-07-31T04:41:12;15.80;99.90
25811;DHT22;13645;52.460;13.910;2023-07-31T04:43:39;15.80;99.90
25811;DHT22;13645;52.460;13.910;2023-07-31T04:46:06;15.80;99.90
25811;DHT22;13645;52.460;13.910;2023-07-31T05:15:49;15.90;99.90
25811;DHT22;13645;52.460;13.910;2023-07-31T05:18:16;16.00;99.90
25811;DHT22;13645;52.460;13.910;2023-07-31T05:20:43;16.00;99.90
25811;DHT22;13645;52.460;13.910;2023-07-31T05:23:10;16.00;99.90
25811;DHT22;13645;52.460;13.910;2023-07-31T05:25:36;16.00;99.90
25811;DHT22;13645;52.460;13.910;2023-07-31T05:28:03;16.00;99.90
25811;DHT22;13645;52.460;13.910;2023-07-31T05:30:30;16.10;99.90
25811;DHT22;13645;52.460;13.910;2023-07-31T05:32:57;16.10;99.90
25811;DHT22;13645;52.460;13.910;2023-07-31T05:35:24;16.20;99.90
25811;DHT22;13645;52.460;13.910;2023-07-31T05:37:54;16.20;99.90
25811;DHT22;13645;52.460;13.910;2023-07-31T05:40:21;16.30;99.90
25811;DHT22;13645;52.460;13.910;2023-07-31T05:42:48;16.30;99.90
25811;DHT22;13645;52.460;13.910;2023-07-31T05:45:14;16.30;99.90
25811;DHT22;13645;52.460;13.910;2023-07-31T05:47:41;16.40;99.90
25811;DHT22;13645;52.460;13.910;2023-07-31T05:50:08;16.40;99.90
25811;DHT22;13645;52.460;13.910;2023-07-31T05:52:35;16.40;99.90
25811;DHT22;13645;52.460;13.910;2023-07-31T05:55:02;16.40;99.90
25811;DHT22;13645;52.460;13.910;2023-07-31T05:57:29;16.50;99.90
25811;DHT22;13645;52.460;13.910;2023-07-31T05:59:56;16.40;99.90
25811;DHT22;13645;52.460;13.910;2023-07-31T06:02:23;16.40;99.90
25811;DHT22;13645;52.460;13.910;2023-07-31T06:04:50;16.40;99.90
25811;DHT22;13645;52.460;13.910;2023-07-31T06:07:17;16.40;99.90
25811;DHT22;13645;52.460;13.910;2023-07-31T06:09:44;16.40;99.90
25811;DHT22;13645;52.460;13.910;2023-07-31T06:12:10;16.40;99.90
25811;DHT22;13645;52.460;13.910;2023-07-31T06:14:38;16.40;99.90
25811;DHT22;13645;52.460;13.910;2023-07-31T06:17:05;16.40;99.90
25811;DHT22;13645;52.460;13.910;2023-07-31T06:19:32;16.40;99.90
25811;DHT22;13645;52.460;13.910;2023-07-31T06:21:58;16.40;99.90
25811;DHT22;13645;52.460;13.910;2023-07-31T06:24:25;16.40;99.90
25811;DHT22;13645;52.460;13.910;2023-07-31T06:26:52;16.50;99.90
25811;DHT22;13645;52.460;13.910;2023-07-31T06:29:20;16.50;99.90
25811;DHT22;13645;52.460;13.910;2023-07-31T06:31:47;16.50;99.90
25811;DHT22;13645;52.460;13.910;2023-07-31T06:34:14;16.50;99.90
25811;DHT22;13645;52.460;13.910;2023-07-31T06:36:41;16.50;99.90
25811;DHT22;13645;52.460;13.910;2023-07-31T06:39:08;16.50;99.90
25811;DHT22;13645;52.460;13.910;2023-07-31T06:41:35;16.60;99.90
25811;DHT22;13645;52.460;13.910;2023-07-31T06:44:02;16.50;99.90
25811;DHT22;13645;52.460;13.910;2023-07-31T06:46:29;16.50;99.90
25811;DHT22;13645;52.460;13.910;2023-07-31T06:48:55;16.40;99.90
25811;DHT22;13645;52.460;13.910;2023-07-31T06:51:22;16.50;99.90
25811;DHT22;13645;52.460;13.910;2023-07-31T06:53:49;16.40;99.90
25811;DHT22;13645;52.460;13.910;2023-07-31T06:56:16;16.50;99.90
25811;DHT22;13645;52.460;13.910;2023-07-31T06:58:43;16.40;99.90
25811;DHT22;13645;52.460;13.910;2023-07-31T07:01:10;16.50;99.90
25811;DHT22;13645;52.460;13.910;2023-07-31T07:03:36;16.40;99.90
25811;DHT22;13645;52.460;13.910;2023-07-31T07:06:03;16.40;99.90
25811;DHT22;13645;52.460;13.910;2023-07-31T07:08:31;16.50;99.90
25811;DHT22;13645;52.460;13.910;2023-07-31T07:10:58;16.50;99.90
25811;DHT22;13645;52.460;13.910;2023-07-31T07:13:25;16.50;99.90
25811;DHT22;13645;52.460;13.910;2023-07-31T07:15:53;16.60;99.90
25811;DHT22;13645;52.460;13.910;2023-07-31T07:18:20;16.60;99.90
25811;DHT22;13645;52.460;13.910;2023-07-31T07:20:50;16.60;99.90
25811;DHT22;13645;52.460;13.910;2023-07-31T07:23:17;16.60;99.90
25811;DHT22;13645;52.460;13.910;2023-07-31T07:25:45;16.60;99.90
25811;DHT22;13645;52.460;13.910;2023-07-31T07:28:12;16.60;99.90
25811;DHT22;13645;52.460;13.910;2023-07-31T07:30:39;16.70;99.90
25811;DHT22;13645;52.460;13.910;2023-07-31T07:33:06;16.60;99.90
25811;DHT22;13645;52.460;13.910;2023-07-31T07:35:34;16.60;99.90
25811;DHT22;13645;52.460;13.910;2023-07-31T07:38:04;16.60;99.90
25811;DHT22;13645;52.460;13.910;2023-07-31T07:40:31;16.50;99.90
25811;DHT22;13645;52.460;13.910;2023-07-31T07:42:58;16.50;99.90
25811;DHT22;13645;52.460;13.910;2023-07-31T07:45:26;16.50;99.90
25811;DHT22;13645;52.460;13.910;2023-07-31T07:47:53;16.50;99.90
25811;DHT22;13645;52.460;13.910;2023-07-31T07:50:20;16.50;99.90
25811;DHT22;13645;52.460;13.910;2023-07-31T07:52:47;16.50;99.90
25811;DHT22;13645;52.460;13.910;2023-07-31T07:55:13;16.50;99.90
25811;DHT22;13645;52.460;13.910;2023-07-31T07:57:40;16.60;99.90
25811;DHT22;13645;52.460;13.910;2023-07-31T08:00:07;16.60;99.90
25811;DHT22;13645;52.460;13.910;2023-07-31T08:02:37;16.70;99.90
25811;DHT22;13645;52.460;13.910;2023-07-31T08:05:04;16.80;99.90
25811;DHT22;13645;52.460;13.910;2023-07-31T08:07:31;16.90;99.90
25811;DHT22;13645;52.460;13.910;2023-07-31T08:09:57;17.00;99.90
25811;DHT22;13645;52.460;13.910;2023-07-31T08:12:24;17.10;99.90
25811;DHT22;13645;52.460;13.910;2023-07-31T08:14:51;17.30;99.90
25811;DHT22;13645;52.460;13.910;2023-07-31T08:17:18;17.30;99.90
25811;DHT22;13645;52.460;13.910;2023-07-31T08:19:45;17.50;99.90
25811;DHT22;13645;52.460;13.910;2023-07-31T08:22:13;17.50;99.90
25811;DHT22;13645;52.460;13.910;2023-07-31T08:24:40;17.60;99.90
25811;DHT22;13645;52.460;13.910;2023-07-31T08:27:07;17.70;99.90
25811;DHT22;13645;52.460;13.910;2023-07-31T08:29:34;17.80;99.90
25811;DHT22;13645;52.460;13.910;2023-07-31T08:32:01;17.70;99.90
25811;DHT22;13645;52.460;13.910;2023-07-31T08:34:28;17.70;99.90
25811;DHT22;13645;52.460;13.910;2023-07-31T08:36:54;17.70;99.90
25811;DHT22;13645;52.460;13.910;2023-07-31T08:39:21;17.80;99.90
25811;DHT22;13645;52.460;13.910;2023-07-31T08:41:48;17.80;99.90
25811;DHT22;13645;52.460;13.910;2023-07-31T08:44:15;17.90;99.90
25811;DHT22;13645;52.460;13.910;2023-07-31T08:46:43;17.90;99.90
25811;DHT22;13645;52.460;13.910;2023-07-31T08:49:10;18.00;99.90
25811;DHT22;13645;52.460;13.910;2023-07-31T08:51:41;18.00;99.90
25811;DHT22;13645;52.460;13.910;2023-07-31T08:54:08;18.00;99.90
25811;DHT22;13645;52.460;13.910;2023-07-31T08:56:35;17.90;99.90
25811;DHT22;13645;52.460;13.910;2023-07-31T08:59:03;17.80;99.90
25811;DHT22;13645;52.460;13.910;2023-07-31T09:01:32;17.80;99.90
25811;DHT22;13645;52.460;13.910;2023-07-31T09:04:01;17.70;99.90
25811;DHT22;13645;52.460;13.910;2023-07-31T09:06:30;17.70;99.90
25811;DHT22;13645;52.460;13.910;2023-07-31T09:09:01;17.70;99.90
25811;DHT22;13645;52.460;13.910;2023-07-31T09:11:28;17.80;99.90
25811;DHT22;13645;52.460;13.910;2023-07-31T09:13:57;17.80;99.90
25811;DHT22;13645;52.460;13.910;2023-07-31T09:16:28;17.80;99.90
25811;DHT22;13645;52.460;13.910;2023-07-31T09:18:58;17.80;99.90
25811;DHT22;13645;52.460;13.910;2023-07-31T09:21:28;17.90;99.90
25811;DHT22;13645;52.460;13.910;2023-07-31T09:23:55;18.00;99.90
25811;DHT22;13645;52.460;13.910;2023-07-31T09:26:35;18.10;99.90
25811;DHT22;13645;52.460;13.910;2023-07-31T09:29:07;18.30;99.90
25811;DHT22;13645;52.460;13.910;2023-07-31T09:31:44;18.40;99.90
25811;DHT22;13645;52.460;13.910;2023-07-31T09:34:12;18.50;99.90
25811;DHT22;13645;52.460;13.910;2023-07-31T09:36:45;18.60;99.90
25811;DHT22;13645;52.460;13.910;2023-07-31T09:39:13;18.70;99.90
25811;DHT22;13645;52.460;13.910;2023-07-31T09:41:45;18.80;99.90
25811;DHT22;13645;52.460;13.910;2023-07-31T09:44:12;18.80;99.90
25811;DHT22;13645;52.460;13.910;2023-07-31T09:46:39;18.90;99.90
25811;DHT22;13645;52.460;13.910;2023-07-31T09:49:15;19.10;99.90
25811;DHT22;13645;52.460;13.910;2023-07-31T09:51:42;19.20;99.90
25811;DHT22;13645;52.460;13.910;2023-07-31T09:54:13;19.20;99.90
25811;DHT22;13645;52.460;13.910;2023-07-31T09:56:44;19.30;99.90
25811;DHT22;13645;52.460;13.910;2023-07-31T09:59:13;19.30;99.90
25811;DHT22;13645;52.460;13.910;2023-07-31T10:01:41;19.30;99.90
25811;DHT22;13645;52.460;13.910;2023-07-31T10:04:10;19.00;99.90
25811;DHT22;13645;52.460;13.910;2023-07-31T10:06:40;18.90;99.90
25811;DHT22;13645;52.460;13.910;2023-07-31T10:09:09;18.80;99.90
25811;DHT22;13645;52.460;13.910;2023-07-31T10:11:41;18.60;99.90
25811;DHT22;13645;52.460;13.910;2023-07-31T10:14:10;18.50;99.90
25811;DHT22;13645;52.460;13.910;2023-07-31T10:16:38;18.30;99.90
25811;DHT22;13645;52.460;13.910;2023-07-31T10:19:08;18.30;99.90
25811;DHT22;13645;52.460;13.910;2023-07-31T10:21:36;18.30;99.90
25811;DHT22;13645;52.460;13.910;2023-07-31T10:24:05;18.40;99.90
25811;DHT22;13645;52.460;13.910;2023-07-31T10:26:32;18.60;99.90
25811;DHT22;13645;52.460;13.910;2023-07-31T10:29:00;18.80;99.90
25811;DHT22;13645;52.460;13.910;2023-07-31T10:31:28;18.90;99.90
25811;DHT22;13645;52.460;13.910;2023-07-31T10:33:57;19.00;99.90
25811;DHT22;13645;52.460;13.910;2023-07-31T10:36:26;18.90;99.90
25811;DHT22;13645;52.460;13.910;2023-07-31T10:38:56;18.80;99.90
25811;DHT22;13645;52.460;13.910;2023-07-31T10:41:30;18.80;99.90
25811;DHT22;13645;52.460;13.910;2023-07-31T10:44:00;18.80;99.90
25811;DHT22;13645;52.460;13.910;2023-07-31T10:46:30;18.80;99.90
25811;DHT22;13645;52.460;13.910;2023-07-31T10:48:59;18.80;99.90
25811;DHT22;13645;52.460;13.910;2023-07-31T10:51:34;18.80;99.90
25811;DHT22;13645;52.460;13.910;2023-07-31T10:54:12;18.80;99.90
25811;DHT22;13645;52.460;13.910;2023-07-31T10:56:40;18.90;99.90
25811;DHT22;13645;52.460;13.910;2023-07-31T10:59:07;19.00;99.90
25811;DHT22;13645;52.460;13.910;2023-07-31T11:01:55;18.90;99.90
25811;DHT22;13645;52.460;13.910;2023-07-31T11:04:27;18.80;99.90
25811;DHT22;13645;52.460;13.910;2023-07-31T11:06:58;18.90;99.90
25811;DHT22;13645;52.460;13.910;2023-07-31T11:09:33;18.90;99.90
25811;DHT22;13645;52.460;13.910;2023-07-31T11:12:00;19.10;99.90
25811;DHT22;13645;52.460;13.910;2023-07-31T11:14:27;19.40;99.90
25811;DHT22;13645;52.460;13.910;2023-07-31T11:16:54;19.70;99.90
25811;DHT22;13645;52.460;13.910;2023-07-31T11:19:25;20.50;99.90
25811;DHT22;13645;52.460;13.910;2023-07-31T11:21:52;21.30;99.90
25811;DHT22;13645;52.460;13.910;2023-07-31T11:24:20;21.90;99.90
25811;DHT22;13645;52.460;13.910;2023-07-31T11:26:51;22.20;40.80
25811;DHT22;13645;52.460;13.910;2023-07-31T11:29:19;22.40;6.30
25811;DHT22;13645;52.460;13.910;2023-07-31T11:31:47;22.30;1.00
25811;DHT22;13645;52.460;13.910;2023-07-31T11:34:14;22.30;38.00
25811;DHT22;13645;52.460;13.910;2023-07-31T11:36:55;22.20;1.00
25811;DHT22;13645;52.460;13.910;2023-07-31T11:39:22;22.00;1.00
25811;DHT22;13645;52.460;13.910;2023-07-31T11:41:49;21.80;1.00
25811;DHT22;13645;52.460;13.910;2023-07-31T11:44:16;21.70;1.00
25811;DHT22;13645;52.460;13.910;2023-07-31T11:46:56;21.40;1.00
25811;DHT22;13645;52.460;13.910;2023-07-31T11:49:23;21.30;1.00
25811;DHT22;13645;52.460;13.910;2023-07-31T11:51:53;21.30;19.00
25811;DHT22;13645;52.460;13.910;2023-07-31T11:54:20;21.20;22.60
25811;DHT22;13645;52.460;13.910;2023-07-31T11:56:48;21.30;1.00
25811;DHT22;13645;52.460;13.910;2023-07-31T11:59:17;21.30;9.30
25811;DHT22;13645;52.460;13.910;2023-07-31T12:01:46;21.20;1.00
25811;DHT22;13645;52.460;13.910;2023-07-31T12:04:16;21.20;1.00
25811;DHT22;13645;52.460;13.910;2023-07-31T12:06:44;21.20;1.00
25811;DHT22;13645;52.460;13.910;2023-07-31T12:09:11;21.50;1.00
25811;DHT22;13645;52.460;13.910;2023-07-31T12:11:44;21.40;1.00
25811;DHT22;13645;52.460;13.910;2023-07-31T12:14:23;21.30;1.00
25811;DHT22;13645;52.460;13.910;2023-07-31T12:17:00;21.30;1.00
25811;DHT22;13645;52.460;13.910;2023-07-31T12:19:27;21.30;1.00
25811;DHT22;13645;52.460;13.910;2023-07-31T12:21:59;21.30;1.00
25811;DHT22;13645;52.460;13.910;2023-07-31T12:24:27;21.30;1.00
25811;DHT22;13645;52.460;13.910;2023-07-31T12:26:54;21.30;1.00
25811;DHT22;13645;52.460;13.910;2023-07-31T12:29:22;21.20;1.00
25811;DHT22;13645;52.460;13.910;2023-07-31T12:31:48;21.00;1.00
25811;DHT22;13645;52.460;13.910;2023-07-31T12:34:20;21.00;1.00
25811;DHT22;13645;52.460;13.910;2023-07-31T12:36:50;20.80;1.00
25811;DHT22;13645;52.460;13.910;2023-07-31T12:39:18;20.80;1.00
25811;DHT22;13645;52.460;13.910;2023-07-31T12:41:45;20.80;1.00
25811;DHT22;13645;52.460;13.910;2023-07-31T12:44:12;20.90;1.00
25811;DHT22;13645;52.460;13.910;2023-07-31T12:46:39;21.00;1.00
25811;DHT22;13645;52.460;13.910;2023-07-31T12:49:06;21.10;1.00
25811;DHT22;13645;52.460;13.910;2023-07-31T12:51:36;21.10;1.00
25811;DHT22;13645;52.460;13.910;2023-07-31T12:54:03;21.30;1.00
25811;DHT22;13645;52.460;13.910;2023-07-31T12:56:33;21.20;1.00
25811;DHT22;13645;52.460;13.910;2023-07-31T12:59:00;21.20;1.00
25811;DHT22;13645;52.460;13.910;2023-07-31T13:01:27;21.10;1.00
25811;DHT22;13645;52.460;13.910;2023-07-31T13:03:55;21.00;1.00
25811;DHT22;13645;52.460;13.910;2023-07-31T13:06:22;21.00;1.00
25811;DHT22;13645;52.460;13.910;2023-07-31T13:08:49;21.10;1.00
25811;DHT22;13645;52.460;13.910;2023-07-31T13:11:16;21.20;1.00
25811;DHT22;13645;52.460;13.910;2023-07-31T13:13:44;21.30;1.00
25811;DHT22;13645;52.460;13.910;2023-07-31T13:16:12;21.60;1.00
25811;DHT22;13645;52.460;13.910;2023-07-31T13:18:39;21.70;1.00
25811;DHT22;13645;52.460;13.910;2023-07-31T13:21:06;21.60;1.00
25811;DHT22;13645;52.460;13.910;2023-07-31T13:23:32;21.60;1.00
25811;DHT22;13645;52.460;13.910;2023-07-31T13:25:59;21.60;1.00
25811;DHT22;13645;52.460;13.910;2023-07-31T13:28:26;21.60;1.00
25811;DHT22;13645;52.460;13.910;2023-07-31T13:30:53;21.70;1.00
25811;DHT22;13645;52.460;13.910;2023-07-31T13:33:22;21.70;1.00
25811;DHT22;13645;52.460;13.910;2023-07-31T13:36:03;21.70;1.00
25811;DHT22;13645;52.460;13.910;2023-07-31T13:38:29;21.70;1.00
25811;DHT22;13645;52.460;13.910;2023-07-31T13:40:58;21.40;1.00
25811;DHT22;13645;52.460;13.910;2023-07-31T13:43:26;21.20;1.00
25811;DHT22;13645;52.460;13.910;2023-07-31T13:45:52;21.10;1.00
25811;DHT22;13645;52.460;13.910;2023-07-31T13:48:19;21.00;1.00
25811;DHT22;13645;52.460;13.910;2023-07-31T13:50:46;20.90;1.00
25811;DHT22;13645;52.460;13.910;2023-07-31T13:53:13;20.80;1.00
25811;DHT22;13645;52.460;13.910;2023-07-31T13:55:40;20.80;1.00
25811;DHT22;13645;52.460;13.910;2023-07-31T13:58:07;20.80;1.00
25811;DHT22;13645;52.460;13.910;2023-07-31T14:00:33;20.90;1.00
25811;DHT22;13645;52.460;13.910;2023-07-31T14:03:02;21.20;1.00
25811;DHT22;13645;52.460;13.910;2023-07-31T14:05:29;21.30;1.00
25811;DHT22;13645;52.460;13.910;2023-07-31T14:07:56;21.70;1.00
25811;DHT22;13645;52.460;13.910;2023-07-31T14:10:23;22.00;1.00
25811;DHT22;13645;52.460;13.910;2023-07-31T14:12:50;22.30;1.00
25811;DHT22;13645;52.460;13.910;2023-07-31T14:15:17;22.50;1.00
25811;DHT22;13645;52.460;13.910;2023-07-31T14:17:44;22.70;1.00
25811;DHT22;13645;52.460;13.910;2023-07-31T14:20:11;22.70;1.00
25811;DHT22;13645;52.460;13.910;2023-07-31T14:22:38;22.70;1.00
25811;DHT22;13645;52.460;13.910;2023-07-31T14:25:06;22.80;1.00
25811;DHT22;13645;52.460;13.910;2023-07-31T14:27:33;22.90;1.00
25811;DHT22;13645;52.460;13.910;2023-07-31T14:29:59;22.90;1.00
25811;DHT22;13645;52.460;13.910;2023-07-31T14:32:26;22.70;1.00
25811;DHT22;13645;52.460;13.910;2023-07-31T14:34:53;22.50;1.00
25811;DHT22;13645;52.460;13.910;2023-07-31T14:37:21;22.40;1.00
25811;DHT22;13645;52.460;13.910;2023-07-31T14:39:48;22.40;1.00
25811;DHT22;13645;52.460;13.910;2023-07-31T14:42:14;22.20;1.00
25811;DHT22;13645;52.460;13.910;2023-07-31T14:44:43;22.10;1.00
25811;DHT22;13645;52.460;13.910;2023-07-31T14:47:09;22.10;1.00
25811;DHT22;13645;52.460;13.910;2023-07-31T14:49:36;22.30;1.00
25811;DHT22;13645;52.460;13.910;2023-07-31T14:52:03;22.30;1.00
25811;DHT22;13645;52.460;13.910;2023-07-31T14:54:30;22.30;1.00
25811;DHT22;13645;52.460;13.910;2023-07-31T14:56:57;22.20;1.00
25811;DHT22;13645;52.460;13.910;2023-07-31T14:59:25;22.20;1.00
25811;DHT22;13645;52.460;13.910;2023-07-31T15:01:52;22.00;1.00
25811;DHT22;13645;52.460;13.910;2023-07-31T15:04:19;21.90;1.00
25811;DHT22;13645;52.460;13.910;2023-07-31T15:06:46;21.90;1.00
25811;DHT22;13645;52.460;13.910;2023-07-31T15:09:13;21.70;1.00
25811;DHT22;13645;52.460;13.910;2023-07-31T15:11:40;21.80;1.00
25811;DHT22;13645;52.460;13.910;2023-07-31T15:14:07;21.80;1.00
25811;DHT22;13645;52.460;13.910;2023-07-31T15:16:34;21.70;1.00
25811;DHT22;13645;52.460;13.910;2023-07-31T15:19:01;21.70;1.00
25811;DHT22;13645;52.460;13.910;2023-07-31T15:21:27;21.80;1.00
25811;DHT22;13645;52.460;13.910;2023-07-31T15:23:55;21.90;1.00
25811;DHT22;13645;52.460;13.910;2023-07-31T15:26:22;21.90;1.00
25811;DHT22;13645;52.460;13.910;2023-07-31T15:29:00;22.00;1.00
25811;DHT22;13645;52.460;13.910;2023-07-31T15:31:28;22.10;1.00
25811;DHT22;13645;52.460;13.910;2023-07-31T15:33:55;22.00;1.00
25811;DHT22;13645;52.460;13.910;2023-07-31T15:36:21;21.90;1.00
25811;DHT22;13645;52.460;13.910;2023-07-31T15:38:48;21.80;1.00
25811;DHT22;13645;52.460;13.910;2023-07-31T15:41:18;21.80;1.00
25811;DHT22;13645;52.460;13.910;2023-07-31T15:43:47;21.60;1.00
25811;DHT22;13645;52.460;13.910;2023-07-31T15:46:14;21.60;1.00
25811;DHT22;13645;52.460;13.910;2023-07-31T15:48:41;21.50;1.00
25811;DHT22;13645;52.460;13.910;2023-07-31T15:51:08;21.40;1.00
25811;DHT22;13645;52.460;13.910;2023-07-31T15:53:35;21.40;1.00
25811;DHT22;13645;52.460;13.910;2023-07-31T15:56:02;21.40;1.00
25811;DHT22;13645;52.460;13.910;2023-07-31T15:58:29;21.50;1.00
25811;DHT22;13645;52.460;13.910;2023-07-31T16:00:56;21.50;1.00